Terminal Aerodrome Forecast
Issued by NWS Cleveland, OH

Home | Current Version | Previous Version | Graphics & Text | Print | Product List | Glossary On
Versions: 1 2 3 4 5 6 7 8 9 10 11 12 13 14 15 16 17
044
FTUS41 KCLE 222351 AAA
TAFYNG
TAF AMD
KYNG 222351Z 2300/2324 21008KT P6SM BKN200
     FM230700 20010KT P6SM BKN025 OVC040
     FM230800 20010KT P6SM BKN015 OVC025
      TEMPO 2308/2311 4SM SHRA OVC015
     FM231100 21010KT 4SM -SHRA BR VCTS BKN008CB OVC015
     FM231600 22012G20KT 4SM -SHRA BR VCTS OVC015CB=

USA.gov is the U.S. government's official web portal to all federal, state and local government web resources and services.